Time;durP1;ratioP1;P1;durP2;ratioP2;P2;SDS_P1;SDS_P2;PMS_P1;PMS_P2;Temp;Humidity;BMP_temperature;BMP_pressure;BME280_temperature;BME280_humidity;BME280_pressure;Samples;Min_cycle;Max_cycle;Signal;HPM_P1;HPM_P2
2023/01/02 00:00:24;;;;;;;3.35;1.48;;;10.70;99.90;;;;;;5082096;28;20075;-72
2023/01/02 00:02:50;;;;;;;4.53;1.20;;;10.70;99.90;;;;;;5052622;28;20040;-72
2023/01/02 00:05:15;;;;;;;4.88;1.63;;;10.60;99.90;;;;;;5070402;28;20052;-72
2023/01/02 00:07:41;;;;;;;4.28;1.70;;;10.60;99.90;;;;;;5077870;28;20436;-72
2023/01/02 00:10:07;;;;;;;4.47;1.65;;;10.70;99.90;;;;;;5073800;28;20071;-72
2023/01/02 00:12:32;;;;;;;3.83;1.67;;;10.70;99.90;;;;;;5085291;28;20064;-72
2023/01/02 00:14:58;;;;;;;3.83;2.03;;;10.70;99.90;;;;;;5061343;28;20044;-72
2023/01/02 00:17:24;;;;;;;4.35;1.83;;;10.60;99.90;;;;;;5073362;28;20040;-73
2023/01/02 00:19:49;;;;;;;5.80;2.13;;;10.70;99.90;;;;;;5070295;28;20124;-72
2023/01/02 00:22:15;;;;;;;3.83;1.92;;;10.70;99.90;;;;;;5068910;28;20113;-72
2023/01/02 00:24:40;;;;;;;4.13;2.03;;;10.70;99.90;;;;;;5070885;28;20145;-72
2023/01/02 00:27:06;;;;;;;3.03;1.70;;;10.70;99.90;;;;;;5061802;28;20035;-72
2023/01/02 00:29:31;;;;;;;3.95;2.20;;;10.70;99.90;;;;;;5075046;28;20056;-72
2023/01/02 00:31:58;;;;;;;4.03;2.33;;;10.70;99.90;;;;;;5072031;28;20124;-72
2023/01/02 00:34:24;;;;;;;3.78;2.03;;;10.70;99.90;;;;;;5066687;28;20036;-72
2023/01/02 00:36:50;;;;;;;6.85;2.65;;;10.70;99.90;;;;;;5074496;28;20040;-72
2023/01/02 00:39:15;;;;;;;5.43;2.45;;;10.70;99.90;;;;;;5065542;28;20036;-72
2023/01/02 00:41:41;;;;;;;7.55;2.45;;;10.70;99.90;;;;;;5073359;28;20043;-72
2023/01/02 00:44:06;;;;;;;4.82;2.28;;;10.70;99.90;;;;;;5074479;28;20075;-72
2023/01/02 00:46:32;;;;;;;5.03;3.22;;;10.70;99.90;;;;;;5076933;28;20036;-72
2023/01/02 00:48:58;;;;;;;4.55;2.58;;;10.70;99.90;;;;;;5073429;28;21507;-72
2023/01/02 00:51:23;;;;;;;7.80;3.20;;;10.70;99.90;;;;;;5071956;28;20040;-72
2023/01/02 00:53:49;;;;;;;6.07;3.40;;;10.70;99.90;;;;;;5071660;28;20039;-72
2023/01/02 00:56:14;;;;;;;5.40;3.10;;;10.70;99.90;;;;;;5076914;28;20032;-72
2023/01/02 00:58:40;;;;;;;6.97;2.90;;;10.70;99.90;;;;;;5061310;28;20071;-73
2023/01/02 01:01:05;;;;;;;6.55;3.22;;;10.70;99.90;;;;;;5073921;28;20044;-73
2023/01/02 01:03:31;;;;;;;6.68;3.65;;;10.70;99.90;;;;;;5071711;28;20095;-72
2023/01/02 01:05:57;;;;;;;6.13;3.80;;;10.80;99.90;;;;;;5058705;28;20065;-73
2023/01/02 01:08:22;;;;;;;6.15;3.30;;;10.70;99.90;;;;;;5072493;28;20056;-72
2023/01/02 01:10:48;;;;;;;6.07;3.10;;;10.80;99.90;;;;;;5062892;28;20047;-72
2023/01/02 01:13:13;;;;;;;6.45;3.10;;;10.80;99.90;;;;;;5071586;28;20036;-72
2023/01/02 01:15:39;;;;;;;6.47;3.40;;;10.80;99.90;;;;;;5073231;28;21686;-72
2023/01/02 01:18:04;;;;;;;7.57;3.45;;;10.80;99.90;;;;;;5055620;28;20040;-72
2023/01/02 01:20:30;;;;;;;7.78;3.10;;;10.80;99.90;;;;;;5071812;28;20036;-72
2023/01/02 01:22:56;;;;;;;9.75;4.30;;;10.80;99.90;;;;;;5072400;28;20063;-72
2023/01/02 01:25:21;;;;;;;6.57;2.95;;;10.80;99.90;;;;;;5071659;28;20547;-72
2023/01/02 01:27:47;;;;;;;4.88;2.78;;;10.80;99.90;;;;;;5079474;28;20402;-72
2023/01/02 01:30:13;;;;;;;7.43;3.95;;;10.80;99.90;;;;;;5057141;28;20102;-72
2023/01/02 01:32:38;;;;;;;7.20;3.08;;;10.80;99.90;;;;;;5065612;28;20111;-72
2023/01/02 01:35:04;;;;;;;9.48;3.50;;;10.80;99.90;;;;;;5072009;28;20040;-72
2023/01/02 01:37:30;;;;;;;7.40;3.20;;;10.80;99.90;;;;;;5077222;28;20115;-72
2023/01/02 01:39:55;;;;;;;5.50;2.80;;;10.80;99.90;;;;;;5072530;28;20545;-72
2023/01/02 01:42:21;;;;;;;7.35;3.35;;;10.80;99.90;;;;;;5066727;28;20050;-72
2023/01/02 01:44:50;;;;;;;6.18;2.65;;;10.80;99.90;;;;;;5057676;28;20036;-73
2023/01/02 01:47:40;;;;;;;8.73;3.20;;;10.80;99.90;;;;;;5056117;28;20086;-72
2023/01/02 01:50:18;;;;;;;4.88;2.80;;;10.80;99.90;;;;;;5068532;28;20351;-73
2023/01/02 01:52:49;;;;;;;3.72;2.17;;;10.90;99.90;;;;;;5069700;28;20080;-73
2023/01/02 01:55:22;;;;;;;6.65;3.05;;;10.80;99.90;;;;;;5062724;28;20064;-73
2023/01/02 01:57:53;;;;;;;4.38;2.83;;;10.80;99.90;;;;;;5071255;28;20032;-73
2023/01/02 02:00:19;;;;;;;6.70;2.60;;;10.90;99.90;;;;;;5072822;28;20041;-73
2023/01/02 02:02:48;;;;;;;5.18;2.58;;;10.90;99.90;;;;;;5051664;28;20041;-73
2023/01/02 02:05:18;;;;;;;5.68;2.58;;;10.90;99.90;;;;;;5071209;28;20509;-73
2023/01/02 02:07:50;;;;;;;5.85;2.90;;;10.90;99.90;;;;;;5076891;28;20282;-73
2023/01/02 02:10:16;;;;;;;4.45;2.10;;;10.90;99.90;;;;;;5075959;28;20511;-73
2023/01/02 02:12:41;;;;;;;5.07;2.33;;;10.90;99.90;;;;;;5077725;28;20040;-72
2023/01/02 02:15:11;;;;;;;6.05;2.28;;;10.90;99.90;;;;;;5077083;28;20110;-73
2023/01/02 02:18:02;;;;;;;4.95;2.20;;;10.90;99.90;;;;;;5076760;28;20027;-73
2023/01/02 02:20:50;;;;;;;4.50;2.20;;;11.00;99.90;;;;;;5069721;28;20891;-73
2023/01/02 02:23:28;;;;;;;4.40;1.90;;;11.00;99.90;;;;;;5068937;28;20090;-73
2023/01/02 02:26:15;;;;;;;3.85;1.95;;;10.90;99.90;;;;;;5071496;28;20040;-73
2023/01/02 02:28:51;;;;;;;5.30;2.75;;;10.90;99.90;;;;;;5074463;28;20032;-73
2023/01/02 02:31:46;;;;;;;4.10;1.83;;;11.00;99.90;;;;;;5049461;28;20055;-73
2023/01/02 02:34:26;;;;;;;5.40;1.65;;;10.90;99.90;;;;;;5060117;28;20040;-73
2023/01/02 02:37:12;;;;;;;5.20;2.30;;;11.00;99.90;;;;;;5072819;28;20329;-73
2023/01/02 02:39:46;;;;;;;5.35;2.72;;;10.90;99.90;;;;;;5087187;28;20119;-73
2023/01/02 02:42:19;;;;;;;5.18;2.40;;;11.00;99.90;;;;;;5076611;28;20135;-73
2023/01/02 02:45:11;;;;;;;7.15;2.67;;;10.90;99.90;;;;;;5070149;28;20041;-73
2023/01/02 02:47:37;;;;;;;4.05;2.00;;;10.90;99.90;;;;;;5067979;28;20055;-73
2023/01/02 02:50:15;;;;;;;5.13;2.58;;;11.00;99.90;;;;;;5051480;28;20071;-73
2023/01/02 02:52:49;;;;;;;6.20;2.72;;;10.90;99.90;;;;;;5088190;28;20116;-72
2023/01/02 02:55:23;;;;;;;8.00;2.42;;;10.90;99.90;;;;;;5074954;28;21864;-73
2023/01/02 02:57:51;;;;;;;8.73;2.80;;;10.90;99.90;;;;;;5061744;28;20040;-73
2023/01/02 03:00:21;;;;;;;9.35;2.35;;;11.00;99.90;;;;;;5076118;28;20261;-72
2023/01/02 03:02:47;;;;;;;8.73;2.55;;;10.90;99.90;;;;;;5068378;28;20061;-73
2023/01/02 03:05:21;;;;;;;6.07;2.38;;;10.90;99.90;;;;;;5076003;28;20052;-73
2023/01/02 03:08:00;;;;;;;6.50;2.40;;;11.00;99.90;;;;;;5074547;28;20486;-73
2023/01/02 03:10:32;;;;;;;6.45;2.25;;;10.90;99.90;;;;;;5068005;28;20095;-73
2023/01/02 03:13:15;;;;;;;4.43;2.05;;;11.00;99.90;;;;;;5069907;28;20111;-73
2023/01/02 03:15:46;;;;;;;6.68;2.03;;;11.00;99.90;;;;;;5067991;28;20116;-73
2023/01/02 03:18:18;;;;;;;5.38;2.13;;;11.00;99.90;;;;;;5057083;28;20070;-73
2023/01/02 03:20:54;;;;;;;5.30;1.77;;;11.00;99.90;;;;;;5069995;28;20051;-73
2023/01/02 03:23:23;;;;;;;4.53;2.17;;;11.00;99.90;;;;;;5086596;28;20040;-73
2023/01/02 03:25:50;;;;;;;5.97;1.60;;;11.00;99.90;;;;;;5070879;28;20071;-73
2023/01/02 03:28:20;;;;;;;7.25;2.58;;;11.00;99.90;;;;;;5067354;28;20036;-73
2023/01/02 03:30:48;;;;;;;5.20;2.35;;;11.00;99.90;;;;;;5102277;27;20445;-73
2023/01/02 03:33:23;;;;;;;4.53;2.15;;;11.00;99.90;;;;;;5072618;28;20047;-73
2023/01/02 03:36:12;;;;;;;4.72;2.08;;;11.00;99.90;;;;;;5052184;28;20028;-73
2023/01/02 03:38:54;;;;;;;6.28;2.28;;;11.00;99.90;;;;;;5074104;28;20478;-73
2023/01/02 03:41:24;;;;;;;4.80;2.20;;;11.10;99.90;;;;;;5068390;28;20111;-73
2023/01/02 03:43:52;;;;;;;3.33;1.45;;;11.10;99.90;;;;;;5049854;28;20107;-73
2023/01/02 03:46:34;;;;;;;4.03;2.00;;;11.10;99.90;;;;;;5073252;28;20189;-73
2023/01/02 03:49:11;;;;;;;4.03;2.10;;;11.10;99.90;;;;;;5068523;28;20147;-73
2023/01/02 03:51:37;;;;;;;4.50;1.83;;;11.10;99.90;;;;;;5072998;28;20047;-73
2023/01/02 03:54:04;;;;;;;9.35;2.25;;;11.10;99.90;;;;;;5067112;28;20101;-72
2023/01/02 03:56:35;;;;;;;4.07;2.25;;;11.10;99.90;;;;;;5074785;28;20059;-73
2023/01/02 03:59:04;;;;;;;3.65;1.98;;;11.10;99.90;;;;;;5065645;28;20042;-72
2023/01/02 04:01:43;;;;;;;4.15;2.13;;;11.10;99.90;;;;;;5071353;28;20101;-73
2023/01/02 04:04:26;;;;;;;5.10;2.72;;;11.10;99.90;;;;;;5067215;28;20049;-73
2023/01/02 04:06:58;;;;;;;3.95;1.65;;;11.10;99.90;;;;;;5076779;28;20113;-72
2023/01/02 04:09:27;;;;;;;4.93;2.05;;;11.10;99.90;;;;;;5074906;28;20071;-72
2023/01/02 04:11:58;;;;;;;3.55;1.85;;;11.10;99.90;;;;;;5068035;28;20051;-73
2023/01/02 04:14:45;;;;;;;5.68;2.05;;;11.10;99.90;;;;;;5069056;28;20032;-73
2023/01/02 04:17:14;;;;;;;3.95;2.33;;;11.10;99.90;;;;;;5058050;28;20393;-72
2023/01/02 04:19:47;;;;;;;3.25;1.83;;;11.10;99.90;;;;;;5079225;28;20036;-73
2023/01/02 04:22:23;;;;;;;8.25;2.50;;;11.10;99.90;;;;;;5073694;28;20067;-73
2023/01/02 04:24:54;;;;;;;6.38;2.10;;;11.10;99.90;;;;;;5075787;28;20063;-73
2023/01/02 04:27:35;;;;;;;6.13;2.20;;;11.20;99.90;;;;;;5078790;28;20509;-73
2023/01/02 04:30:01;;;;;;;4.18;2.03;;;11.10;99.90;;;;;;5063163;28;20032;-73
2023/01/02 04:32:33;;;;;;;3.75;1.95;;;11.10;99.90;;;;;;5074860;28;20036;-73
2023/01/02 04:35:03;;;;;;;6.38;3.10;;;11.10;99.90;;;;;;5064987;28;20039;-72
2023/01/02 04:37:33;;;;;;;4.53;2.20;;;11.10;99.90;;;;;;5071381;28;20036;-72
2023/01/02 04:40:25;;;;;;;4.47;2.13;;;11.20;99.90;;;;;;5080639;28;20032;-72
2023/01/02 04:42:51;;;;;;;3.97;1.90;;;11.20;99.90;;;;;;5081765;27;20056;-72
2023/01/02 04:45:17;;;;;;;7.05;2.10;;;11.20;99.90;;;;;;5071036;28;20059;-72
2023/01/02 04:47:43;;;;;;;5.78;2.08;;;11.20;99.90;;;;;;5071784;28;20513;-72
2023/01/02 04:50:09;;;;;;;3.65;2.05;;;11.20;99.90;;;;;;5074760;28;20126;-72
2023/01/02 04:52:34;;;;;;;5.43;1.85;;;11.20;99.90;;;;;;5074765;28;20538;-73
2023/01/02 04:55:00;;;;;;;4.07;2.08;;;11.20;99.90;;;;;;5068342;28;20036;-73
2023/01/02 04:57:25;;;;;;;3.60;2.35;;;11.20;99.90;;;;;;5076731;28;21796;-72
2023/01/02 04:59:51;;;;;;;3.25;1.77;;;11.30;99.90;;;;;;5071579;28;20047;-72
2023/01/02 05:02:17;;;;;;;5.30;2.00;;;11.30;99.90;;;;;;5072974;28;20037;-72
2023/01/02 05:04:42;;;;;;;4.45;1.67;;;11.30;99.90;;;;;;5076315;28;20048;-72
2023/01/02 05:07:08;;;;;;;4.22;2.17;;;11.30;99.90;;;;;;5060846;28;20040;-72
2023/01/02 05:09:33;;;;;;;4.53;1.85;;;11.30;99.90;;;;;;5057505;28;20044;-72
2023/01/02 05:11:59;;;;;;;5.40;2.50;;;11.30;99.90;;;;;;5069378;28;20055;-72
2023/01/02 05:14:24;;;;;;;3.30;1.60;;;11.30;99.90;;;;;;5072923;28;20173;-72
2023/01/02 05:16:50;;;;;;;4.22;1.63;;;11.30;99.90;;;;;;5073823;28;20056;-73
2023/01/02 05:19:16;;;;;;;6.35;1.88;;;11.30;99.90;;;;;;5074239;28;20060;-72
2023/01/02 05:24:26;;;;;;;5.50;1.73;;;11.30;99.90;;;;;;5068878;28;20056;-72
2023/01/02 05:26:52;;;;;;;7.20;2.15;;;11.30;99.90;;;;;;5075860;28;20085;-72
2023/01/02 05:29:18;;;;;;;3.72;2.00;;;11.40;99.90;;;;;;5073226;28;20080;-72
2023/01/02 05:31:43;;;;;;;3.33;1.67;;;11.40;99.90;;;;;;5074894;28;20068;-72
2023/01/02 05:34:13;;;;;;;3.60;1.85;;;11.40;99.90;;;;;;5071359;28;20440;-72
2023/01/02 05:36:39;;;;;;;5.13;1.60;;;11.40;99.90;;;;;;5069778;28;20371;-72
2023/01/02 05:39:13;;;;;;;6.47;2.25;;;11.40;99.90;;;;;;5076869;28;20097;-72
2023/01/02 05:41:39;;;;;;;7.05;1.70;;;11.40;99.90;;;;;;5073830;28;20066;-72
2023/01/02 05:44:07;;;;;;;6.18;2.10;;;11.40;99.90;;;;;;5073596;28;20522;-72
2023/01/02 05:46:33;;;;;;;5.43;2.30;;;11.40;99.90;;;;;;5043951;28;20044;-72
2023/01/02 05:48:59;;;;;;;2.78;1.50;;;11.40;99.90;;;;;;5072807;28;20024;-72
2023/01/02 05:51:25;;;;;;;5.43;1.83;;;11.40;99.90;;;;;;5070041;28;20044;-72
2023/01/02 05:53:54;;;;;;;4.03;2.00;;;11.40;99.90;;;;;;5077327;28;20052;-72
2023/01/02 05:56:20;;;;;;;3.67;1.63;;;11.50;99.90;;;;;;5075232;28;20561;-72
2023/01/02 05:58:47;;;;;;;4.40;1.80;;;11.40;99.90;;;;;;5072328;28;20112;-72
2023/01/02 06:01:22;;;;;;;4.32;1.55;;;11.50;99.90;;;;;;5078813;28;20040;-72
2023/01/02 06:03:50;;;;;;;3.63;1.60;;;11.50;99.90;;;;;;5072765;28;20040;-72
2023/01/02 06:06:18;;;;;;;4.65;2.10;;;11.40;99.90;;;;;;5066220;28;20101;-72
2023/01/02 06:08:44;;;;;;;7.65;2.63;;;11.50;99.90;;;;;;5069425;28;20036;-72
2023/01/02 06:11:09;;;;;;;5.15;1.67;;;11.50;99.90;;;;;;5067671;28;20391;-72
2023/01/02 06:13:36;;;;;;;4.00;2.00;;;11.50;99.90;;;;;;5076311;28;20059;-72
2023/01/02 06:16:04;;;;;;;3.60;1.38;;;11.50;99.90;;;;;;5054957;28;20553;-72
2023/01/02 06:18:32;;;;;;;3.72;1.85;;;11.60;99.90;;;;;;5075711;28;20401;-73
2023/01/02 06:20:58;;;;;;;4.50;2.05;;;11.50;99.90;;;;;;5068103;28;20044;-72
2023/01/02 06:23:24;;;;;;;2.92;1.48;;;11.50;99.90;;;;;;5069675;28;20049;-73
2023/01/02 06:25:50;;;;;;;8.98;1.60;;;11.50;99.90;;;;;;5069228;28;20516;-72
2023/01/02 06:28:15;;;;;;;3.53;1.52;;;11.50;99.90;;;;;;5077452;28;20472;-73
2023/01/02 06:30:41;;;;;;;4.57;2.65;;;11.60;99.90;;;;;;5074175;28;20036;-73
2023/01/02 06:33:06;;;;;;;4.03;2.22;;;11.50;99.90;;;;;;5071756;28;20032;-72
2023/01/02 06:35:32;;;;;;;3.70;1.98;;;11.60;99.90;;;;;;5055252;28;20068;-72
2023/01/02 06:37:58;;;;;;;5.38;1.83;;;11.60;99.90;;;;;;5073121;28;20642;-72
2023/01/02 06:40:23;;;;;;;4.03;1.73;;;11.60;99.90;;;;;;5069202;28;20066;-72
2023/01/02 06:42:49;;;;;;;4.00;1.70;;;11.50;99.90;;;;;;5064624;28;20076;-72
2023/01/02 06:45:15;;;;;;;5.20;1.60;;;11.60;99.90;;;;;;5074268;28;20107;-72
2023/01/02 06:47:40;;;;;;;5.15;1.55;;;11.60;99.90;;;;;;5058917;28;20680;-72
2023/01/02 06:50:06;;;;;;;7.22;2.75;;;11.60;99.90;;;;;;5069602;28;20126;-72
2023/01/02 06:52:31;;;;;;;5.13;2.03;;;11.60;99.90;;;;;;5068428;28;20044;-72
2023/01/02 06:54:57;;;;;;;7.13;2.20;;;11.50;99.90;;;;;;5074222;28;20035;-72
2023/01/02 06:57:23;;;;;;;5.15;1.98;;;11.60;99.90;;;;;;5073493;28;20045;-72
2023/01/02 06:59:48;;;;;;;3.30;1.60;;;11.60;99.90;;;;;;5072766;28;20500;-72
2023/01/02 07:02:14;;;;;;;3.53;1.55;;;11.60;99.90;;;;;;5057330;28;20401;-72
2023/01/02 07:04:40;;;;;;;3.17;1.65;;;11.60;99.90;;;;;;5052282;28;20048;-72
2023/01/02 07:07:07;;;;;;;2.90;1.60;;;11.50;99.90;;;;;;5073116;28;20043;-72
2023/01/02 07:09:33;;;;;;;4.40;1.90;;;11.60;99.90;;;;;;5075213;28;20546;-72
2023/01/02 07:11:59;;;;;;;3.70;1.55;;;11.60;99.90;;;;;;5054093;28;20116;-72
2023/01/02 07:14:24;;;;;;;2.35;1.48;;;11.60;99.90;;;;;;5070531;28;20039;-72
2023/01/02 07:16:50;;;;;;;3.63;1.40;;;11.60;99.90;;;;;;5072486;28;20037;-72
2023/01/02 07:19:16;;;;;;;2.78;1.17;;;11.60;99.90;;;;;;5056335;28;20029;-72
2023/01/02 07:21:42;;;;;;;3.55;1.17;;;11.60;99.90;;;;;;5071027;28;20083;-72
2023/01/02 07:24:12;;;;;;;1.98;1.02;;;11.60;99.90;;;;;;5074567;28;20037;-72
2023/01/02 07:26:38;;;;;;;1.40;0.88;;;11.50;99.90;;;;;;5073165;28;20074;-72
2023/01/02 07:29:03;;;;;;;0.68;0.38;;;11.40;99.90;;;;;;5068137;28;20040;-72
2023/01/02 07:31:29;;;;;;;0.70;0.32;;;11.30;99.90;;;;;;5052253;28;20474;-72
2023/01/02 07:33:56;;;;;;;0.82;0.40;;;11.20;99.90;;;;;;5071569;28;20037;-72
2023/01/02 07:36:23;;;;;;;0.60;0.35;;;11.10;99.90;;;;;;5065506;28;20040;-72
2023/01/02 07:38:53;;;;;;;0.30;0.30;;;11.00;99.90;;;;;;5069512;28;20048;-72
2023/01/02 07:41:22;;;;;;;0.93;0.32;;;10.90;99.90;;;;;;5070996;28;20090;-72
2023/01/02 07:43:48;;;;;;;0.68;0.38;;;10.90;99.90;;;;;;5068027;28;20044;-72
2023/01/02 07:46:16;;;;;;;0.85;0.50;;;10.80;99.90;;;;;;5067374;28;20044;-72
2023/01/02 07:48:42;;;;;;;1.05;0.45;;;10.70;99.90;;;;;;5075578;28;20052;-72
2023/01/02 07:51:08;;;;;;;1.77;0.68;;;10.60;99.90;;;;;;5071572;28;20046;-72
2023/01/02 07:53:34;;;;;;;1.52;0.57;;;10.60;99.90;;;;;;5074448;28;20123;-72
2023/01/02 07:56:01;;;;;;;2.13;0.88;;;10.50;99.90;;;;;;5072689;28;21488;-73
2023/01/02 07:58:27;;;;;;;1.73;0.85;;;10.50;99.90;;;;;;5072033;28;20050;-72
2023/01/02 08:00:53;;;;;;;2.00;1.17;;;10.50;99.90;;;;;;5066999;28;20123;-72
2023/01/02 08:03:19;;;;;;;2.53;0.80;;;10.50;99.90;;;;;;5074229;28;20035;-73
2023/01/02 08:05:45;;;;;;;2.25;1.15;;;10.40;99.90;;;;;;5070483;28;20521;-75
2023/01/02 08:08:10;;;;;;;2.00;0.90;;;10.40;99.90;;;;;;5072387;28;20050;-72
2023/01/02 08:10:36;;;;;;;2.42;0.90;;;10.40;99.90;;;;;;5071421;28;20067;-72
2023/01/02 08:13:03;;;;;;;2.90;1.20;;;10.30;99.90;;;;;;5060475;28;20093;-72
2023/01/02 08:15:29;;;;;;;2.28;0.80;;;10.30;99.90;;;;;;5067570;28;20044;-72
2023/01/02 08:17:56;;;;;;;2.65;1.23;;;10.20;99.90;;;;;;5051025;28;20125;-72
2023/01/02 08:20:22;;;;;;;1.15;0.63;;;10.20;99.90;;;;;;5049374;28;20045;-72
2023/01/02 08:22:48;;;;;;;2.80;0.88;;;10.10;99.90;;;;;;5069166;28;20043;-72
2023/01/02 08:25:14;;;;;;;1.65;0.63;;;10.10;99.90;;;;;;5065945;28;20059;-72
2023/01/02 08:27:40;;;;;;;1.35;0.63;;;10.00;99.90;;;;;;5063750;28;20036;-72
2023/01/02 08:30:06;;;;;;;2.20;0.52;;;10.00;99.90;;;;;;5062408;28;20086;-72
2023/01/02 08:32:36;;;;;;;2.10;0.57;;;9.90;99.90;;;;;;5064717;28;20028;-72
2023/01/02 08:35:03;;;;;;;1.08;0.40;;;9.80;99.90;;;;;;5103976;28;20048;-72
2023/01/02 08:37:28;;;;;;;0.73;0.40;;;9.80;99.90;;;;;;5064418;28;20505;-72
2023/01/02 08:39:54;;;;;;;1.00;0.47;;;9.80;99.90;;;;;;5049151;28;20039;-72
2023/01/02 08:42:19;;;;;;;1.60;0.57;;;9.70;99.90;;;;;;5067485;28;20041;-72
2023/01/02 08:44:45;;;;;;;0.73;0.40;;;9.70;99.90;;;;;;5067494;28;20052;-72
2023/01/02 08:47:10;;;;;;;0.85;0.40;;;9.70;99.90;;;;;;5079614;28;20699;-72
2023/01/02 08:49:36;;;;;;;0.28;0.22;;;9.70;99.90;;;;;;5064240;28;20064;-72
2023/01/02 08:52:02;;;;;;;0.88;0.32;;;9.60;99.90;;;;;;5064418;28;20040;-72
2023/01/02 08:54:27;;;;;;;0.30;0.10;;;9.60;99.90;;;;;;5063498;28;20106;-72
2023/01/02 08:56:53;;;;;;;0.63;0.10;;;9.60;99.90;;;;;;5071034;28;20066;-72
2023/01/02 08:59:18;;;;;;;0.17;0.10;;;9.60;99.90;;;;;;5065100;28;20086;-72
2023/01/02 09:01:44;;;;;;;0.22;0.10;;;9.50;99.90;;;;;;5063773;28;20081;-72
2023/01/02 09:04:10;;;;;;;0.73;0.30;;;9.50;99.90;;;;;;5071947;28;20128;-72
2023/01/02 09:06:36;;;;;;;0.50;0.20;;;9.50;99.90;;;;;;5060373;28;20101;-72
2023/01/02 09:09:04;;;;;;;0.85;0.32;;;9.50;99.90;;;;;;5069978;28;20045;-72
2023/01/02 09:11:32;;;;;;;0.82;0.38;;;9.50;99.90;;;;;;5069582;28;20040;-72
2023/01/02 09:13:59;;;;;;;0.88;0.40;;;9.50;99.90;;;;;;5051373;28;20119;-72
2023/01/02 09:16:25;;;;;;;0.55;0.30;;;9.40;99.90;;;;;;5068917;28;20037;-72
2023/01/02 09:18:51;;;;;;;0.93;0.25;;;9.40;99.90;;;;;;5053330;28;20390;-72
2023/01/02 09:21:17;;;;;;;0.45;0.30;;;9.40;99.90;;;;;;5099326;27;20032;-72
2023/01/02 09:23:43;;;;;;;0.82;0.30;;;9.40;99.90;;;;;;5074120;28;20062;-72
2023/01/02 09:26:11;;;;;;;0.90;0.40;;;9.40;99.90;;;;;;5064441;28;20040;-72
2023/01/02 09:28:36;;;;;;;1.33;0.52;;;9.40;99.90;;;;;;5072042;28;20050;-72
2023/01/02 09:31:07;;;;;;;0.93;0.38;;;9.40;99.90;;;;;;5068437;28;20493;-72
2023/01/02 09:33:33;;;;;;;0.50;0.20;;;9.40;99.90;;;;;;5066985;28;20090;-72
2023/01/02 09:36:03;;;;;;;0.28;0.10;;;9.40;99.90;;;;;;5073913;28;20032;-72
2023/01/02 09:38:29;;;;;;;1.15;0.50;;;9.40;99.90;;;;;;5084435;27;20032;-72
2023/01/02 09:40:56;;;;;;;0.60;0.20;;;9.40;99.90;;;;;;5057346;28;20048;-72
2023/01/02 09:43:36;;;;;;;0.57;0.30;;;9.40;99.90;;;;;;5072003;28;20117;-72
2023/01/02 09:46:05;;;;;;;0.55;0.30;;;9.40;99.90;;;;;;5053122;28;20040;-72
2023/01/02 09:48:35;;;;;;;1.45;0.38;;;9.40;99.90;;;;;;5061543;28;20498;-72
2023/01/02 09:51:03;;;;;;;1.50;0.30;;;9.40;99.90;;;;;;5075771;28;20037;-72
2023/01/02 09:53:32;;;;;;;0.85;0.43;;;9.40;99.90;;;;;;5068288;28;20032;-73
2023/01/02 09:56:14;;;;;;;1.02;0.30;;;9.50;99.90;;;;;;5071209;28;21506;-72
2023/01/02 09:58:47;;;;;;;1.08;0.30;;;9.40;99.90;;;;;;5072905;28;20180;-72
2023/01/02 10:01:30;;;;;;;1.38;0.50;;;9.40;99.90;;;;;;5067688;28;20056;-73
2023/01/02 10:04:25;;;;;;;0.65;0.40;;;9.40;99.90;;;;;;5068050;28;20036;-73
2023/01/02 10:07:02;;;;;;;0.60;0.40;;;9.40;99.90;;;;;;5107884;27;20040;-72
2023/01/02 10:09:52;;;;;;;0.47;0.30;;;9.50;99.90;;;;;;5066866;28;20446;-73
2023/01/02 10:12:31;;;;;;;1.33;0.57;;;9.50;99.90;;;;;;5068487;28;20520;-72
2023/01/02 10:15:06;;;;;;;1.05;0.50;;;9.50;99.90;;;;;;5083983;27;20063;-72
2023/01/02 10:17:40;;;;;;;0.70;0.43;;;9.50;99.90;;;;;;5053123;28;20040;-72
2023/01/02 10:20:24;;;;;;;1.58;0.25;;;9.50;99.90;;;;;;5070497;28;20549;-72
2023/01/02 10:22:55;;;;;;;0.57;0.20;;;9.50;99.90;;;;;;5069188;28;20273;-72
2023/01/02 10:25:43;;;;;;;0.93;0.32;;;9.50;99.90;;;;;;5067108;28;20060;-72
2023/01/02 10:28:24;;;;;;;3.83;0.40;;;9.50;99.90;;;;;;5071663;28;20041;-72
2023/01/02 10:30:56;;;;;;;0.65;0.20;;;9.50;99.90;;;;;;5047791;28;20044;-72
2023/01/02 10:33:42;;;;;;;0.63;0.20;;;9.50;99.90;;;;;;5095678;27;20036;-72
2023/01/02 10:36:19;;;;;;;0.60;0.30;;;9.50;99.90;;;;;;5067376;28;20047;-74
2023/01/02 10:38:44;;;;;;;0.80;0.40;;;9.50;99.90;;;;;;5065288;28;20171;-77
2023/01/02 10:41:10;;;;;;;1.13;0.50;;;9.40;99.90;;;;;;5068026;28;20171;-81
2023/01/02 10:43:36;;;;;;;0.55;0.30;;;9.40;99.90;;;;;;5079639;28;20043;-74
2023/01/02 10:46:02;;;;;;;0.60;0.30;;;9.40;99.90;;;;;;5069910;28;20492;-72
2023/01/02 10:48:33;;;;;;;0.82;0.35;;;9.40;99.90;;;;;;5067365;28;20658;-72
2023/01/02 10:51:02;;;;;;;0.32;0.20;;;9.40;99.90;;;;;;5097756;27;20482;-73
2023/01/02 10:53:32;;;;;;;2.47;0.47;;;9.40;99.90;;;;;;5100080;27;20036;-73
2023/01/02 10:56:12;;;;;;;0.45;0.25;;;9.30;99.90;;;;;;5052102;28;20036;-73
2023/01/02 10:58:44;;;;;;;0.60;0.30;;;9.30;99.90;;;;;;5067337;28;20474;-73
2023/01/02 11:01:12;;;;;;;0.80;0.30;;;9.40;99.90;;;;;;5065681;28;20069;-73
2023/01/02 11:03:38;;;;;;;0.57;0.50;;;9.30;99.90;;;;;;5066307;28;20563;-77
2023/01/02 11:06:16;;;;;;;0.70;0.40;;;9.40;99.90;;;;;;5065306;28;20056;-72
2023/01/02 11:08:41;;;;;;;1.15;0.70;;;9.40;99.90;;;;;;5047016;28;20409;-72
2023/01/02 11:11:16;;;;;;;0.70;0.47;;;9.40;99.90;;;;;;5067404;28;20036;-72
2023/01/02 11:13:45;;;;;;;1.17;0.30;;;9.40;99.90;;;;;;5065116;28;20040;-72
2023/01/02 11:16:13;;;;;;;0.88;0.30;;;9.40;99.90;;;;;;5062982;28;20087;-72
2023/01/02 11:18:44;;;;;;;1.27;0.50;;;9.40;99.90;;;;;;5067211;28;20112;-72
2023/01/02 11:21:09;;;;;;;1.60;0.50;;;9.50;99.90;;;;;;5067397;28;20059;-72
2023/01/02 11:23:38;;;;;;;0.65;0.32;;;9.50;99.90;;;;;;5066898;28;20497;-72
2023/01/02 11:26:10;;;;;;;2.83;0.93;;;9.50;99.90;;;;;;5050913;28;20068;-72
2023/01/02 11:28:39;;;;;;;1.70;0.40;;;9.50;99.90;;;;;;5070963;28;21170;-72
2023/01/02 11:31:08;;;;;;;1.02;0.50;;;9.50;99.90;;;;;;5065712;28;20543;-72
2023/01/02 11:33:36;;;;;;;1.48;0.63;;;9.50;99.90;;;;;;5066516;28;20498;-72
2023/01/02 11:36:13;;;;;;;2.17;0.75;;;9.50;99.90;;;;;;5061317;28;20041;-72
2023/01/02 11:38:52;;;;;;;3.70;0.88;;;9.50;99.90;;;;;;5062325;28;20478;-72
2023/01/02 11:41:21;;;;;;;1.42;0.47;;;9.50;99.90;;;;;;5068035;28;20444;-73
2023/01/02 11:43:57;;;;;;;0.93;0.47;;;9.50;99.90;;;;;;5052811;28;20681;-72
2023/01/02 11:46:37;;;;;;;3.33;1.05;;;9.50;99.90;;;;;;5061929;28;20051;-73
2023/01/02 11:49:21;;;;;;;1.63;0.70;;;9.50;99.90;;;;;;5098493;27;20035;-72
2023/01/02 11:52:09;;;;;;;2.85;0.73;;;9.40;99.90;;;;;;5074498;28;20482;-73
2023/01/02 11:54:43;;;;;;;1.02;0.70;;;9.40;99.90;;;;;;5063780;28;20050;-72
2023/01/02 11:57:21;;;;;;;0.77;0.35;;;9.40;99.90;;;;;;5084395;28;20497;-72
2023/01/02 11:59:49;;;;;;;1.95;0.93;;;9.30;99.90;;;;;;5071093;28;20048;-73
2023/01/02 12:02:23;;;;;;;1.25;0.40;;;9.30;99.90;;;;;;5066165;28;20074;-72
2023/01/02 12:04:48;;;;;;;1.48;0.60;;;9.30;99.90;;;;;;5062537;28;20521;-72
2023/01/02 12:07:40;;;;;;;2.03;0.43;;;9.30;99.90;;;;;;5066037;28;20049;-73
2023/01/02 12:10:21;;;;;;;1.65;0.52;;;9.30;99.90;;;;;;5067580;28;20409;-72
2023/01/02 12:13:07;;;;;;;1.50;0.50;;;9.40;99.90;;;;;;5066719;28;20417;-73
2023/01/02 12:16:00;;;;;;;1.13;0.35;;;9.40;99.90;;;;;;5069402;28;20047;-72
2023/01/02 12:18:47;;;;;;;1.23;0.45;;;9.40;99.90;;;;;;5070600;28;20043;-73
2023/01/02 12:21:23;;;;;;;1.50;0.60;;;9.40;99.90;;;;;;5063332;28;20128;-73
2023/01/02 12:24:07;;;;;;;2.50;0.50;;;9.50;99.90;;;;;;5053508;28;20028;-72
2023/01/02 12:26:50;;;;;;;1.05;0.50;;;9.40;99.90;;;;;;5051487;28;20044;-73
2023/01/02 12:29:39;;;;;;;1.27;0.50;;;9.50;99.90;;;;;;5070367;28;20047;-73
2023/01/02 12:32:27;;;;;;;1.33;0.52;;;9.50;99.90;;;;;;5070312;28;20924;-79
2023/01/02 12:34:52;;;;;;;0.85;0.50;;;9.50;99.90;;;;;;5065727;28;20035;-73
2023/01/02 12:37:38;;;;;;;2.05;0.52;;;9.40;99.90;;;;;;5060559;28;20032;-73
2023/01/02 12:40:09;;;;;;;1.05;0.75;;;9.40;99.90;;;;;;5055781;28;20560;-74
2023/01/02 12:42:46;;;;;;;0.63;0.43;;;9.40;99.90;;;;;;5066604;28;20078;-73
2023/01/02 12:45:55;;;;;;;2.15;0.45;;;9.40;99.90;;;;;;5064053;28;20401;-72
2023/01/02 12:48:36;;;;;;;1.02;0.50;;;9.50;99.90;;;;;;5068120;28;20040;-72
2023/01/02 12:51:41;;;;;;;1.25;0.30;;;9.50;99.90;;;;;;5069927;28;20040;-73
2023/01/02 12:54:52;;;;;;;0.98;0.50;;;9.50;99.90;;;;;;5057740;28;20215;-73
2023/01/02 12:57:35;;;;;;;1.17;0.50;;;9.60;99.90;;;;;;5047864;28;20045;-73
2023/01/02 13:00:20;;;;;;;1.55;0.50;;;9.50;99.90;;;;;;5057539;28;20040;-73
2023/01/02 13:03:15;;;;;;;1.75;0.28;;;9.50;99.90;;;;;;5073478;28;20040;-73
2023/01/02 13:05:51;;;;;;;5.65;0.52;;;9.50;99.90;;;;;;5104625;28;20057;-73
2023/01/02 13:08:28;;;;;;;0.77;0.43;;;9.50;99.90;;;;;;5071148;28;20059;-73
2023/01/02 13:10:57;;;;;;;1.08;0.43;;;9.50;99.90;;;;;;5078723;28;20064;-73